This is the latest recevied weather packets stored in our database for station/object SQ5DCP-1. If no packets are shown the sender has not sent any weather packets the latest 1 day(s).
| Time | Temp. | Humidity | Pressure | Rain* | Wind** | Luminosity | Snow |
|---|---|---|---|---|---|---|---|
| 1778018126 | 16.67° C | 45% | 1007.3 hPa | 0 mm | 0.89 m/s, 180° | - | - |
| 1778017823 | 16.67° C | 45% | 1007.3 hPa | 0 mm | 0.45 m/s, 188° | - | - |
| 1778017521 | 17.22° C | 45% | 1007.3 hPa | 0 mm | 0.89 m/s, 182° | - | - |
| 1778017220 | 17.22° C | 45% | 1007.3 hPa | 0 mm | 0.89 m/s, 188° | - | - |
| 1778016918 | 17.22° C | 44% | 1007.2 hPa | 0 mm | 1.34 m/s, 184° | - | - |
| 1778016616 | 17.22° C | 44% | 1007.2 hPa | 0 mm | 1.34 m/s, 182° | - | - |
| 1778016335 | 17.22° C | 44% | 1007.2 hPa | 0 mm | 0.89 m/s, 190° | - | - |
| 1778016033 | 17.78° C | 44% | 1007.1 hPa | 0 mm | 0.89 m/s, 181° | - | - |
| 1778015731 | 17.78° C | 44% | 1007.1 hPa | 0 mm | 1.34 m/s, 184° | - | - |
| 1778015429 | 17.78° C | 43% | 1007.1 hPa | 0 mm | 1.34 m/s, 178° | - | - |
| 1778015127 | 17.78° C | 43% | 1007.1 hPa | 0 mm | 1.34 m/s, 178° | - | - |
| 1778014827 | 18.33° C | 43% | 1007.2 hPa | 0 mm | 1.34 m/s, 185° | - | - |
| 1778014524 | 18.33° C | 42% | 1007.1 hPa | 0 mm | 0.89 m/s, 182° | - | - |
| 1778014222 | 18.33° C | 42% | 1007.1 hPa | 0 mm | 0.89 m/s, 175° | - | - |
| 1778013920 | 18.33° C | 42% | 1007.1 hPa | 0 mm | 0.89 m/s, 181° | - | - |
| 1778013649 | 18.33° C | 42% | 1007.1 hPa | 0 mm | 0.89 m/s, 181° | - | - |
| 1778013618 | 18.33° C | 42% | 1007.1 hPa | 0 mm | 0.89 m/s, 181° | - | - |
| 1778013316 | 18.33° C | 42% | 1007.1 hPa | 0 mm | 1.34 m/s, 186° | - | - |
| 1778013035 | 18.33° C | 42% | 1007.1 hPa | 0 mm | 0.89 m/s, 195° | - | - |
| 1778012734 | 18.33° C | 43% | 1007 hPa | 0 mm | 1.34 m/s, 182° | - | - |
| 1778012431 | 18.33° C | 42% | 1007 hPa | 0 mm | 0.89 m/s, 181° | - | - |
| 1778012129 | 18.33° C | 42% | 1006.9 hPa | 0 mm | 0.45 m/s, 206° | - | - |
| 1778011828 | 18.89° C | 43% | 1006.9 hPa | 0 mm | 1.34 m/s, 183° | - | - |
| 1778011526 | 18.89° C | 43% | 1007 hPa | 0 mm | 0.89 m/s, 186° | - | - |
| 1778011225 | 18.89° C | 43% | 1006.9 hPa | 0 mm | 1.34 m/s, 178° | - | - |
* Rain latest hour (hover to see other rain measurements)
** Current wind speed in m/s (hover to see current wind gust speed)